Time;durP1;ratioP1;P1;durP2;ratioP2;P2;SDS_P1;SDS_P2;PMS_P1;PMS_P2;Temp;Humidity;BMP_temperature;BMP_pressure;BME280_temperature;BME280_humidity;BME280_pressure;Samples;Min_cycle;Max_cycle;Signal;HPM_P1;HPM_P2
2023/07/16 00:01:37;;;;;;;;;6.33;6.00;;;;;20.39;42.72;101009.84;5019960;28;75153;-48
2023/07/16 00:04:02;;;;;;;;;4.33;4.00;;;;;20.34;42.63;101014.81;5020079;28;71332;-49
2023/07/16 00:06:28;;;;;;;;;6.00;4.00;;;;;20.30;42.77;101014.22;5020502;28;45419;-47
2023/07/16 00:08:53;;;;;;;;;4.00;4.00;;;;;20.29;42.87;101007.09;5020345;28;66464;-47
2023/07/16 00:11:18;;;;;;;;;8.33;5.33;;;;;20.29;43.40;101012.50;5020159;28;73054;-47
2023/07/16 00:13:46;;;;;;;;;5.67;5.00;;;;;20.31;43.52;101012.34;5020972;28;45353;-47
2023/07/16 00:16:12;;;;;;;;;6.67;5.00;;;;;20.32;43.60;101009.56;5020920;28;46573;-47
2023/07/16 00:18:38;;;;;;;;;6.00;4.00;;;;;20.33;43.45;101015.78;5020884;28;45403;-47
2023/07/16 00:21:03;;;;;;;;;7.00;6.00;;;;;20.30;43.87;101013.38;5019840;28;72457;-48
2023/07/16 00:23:28;;;;;;;;;8.00;4.00;;;;;20.27;43.82;101013.63;5020070;28;61196;-46
2023/07/16 00:25:54;;;;;;;;;7.33;7.00;;;;;20.26;43.46;101018.19;5020066;28;66996;-47
2023/07/16 00:28:19;;;;;;;;;6.00;6.00;;;;;20.17;44.26;101009.03;5019763;28;69597;-47
2023/07/16 00:30:44;;;;;;;;;5.67;5.33;;;;;20.14;44.51;101014.72;5020555;28;45895;-51
2023/07/16 00:33:10;;;;;;;;;8.00;5.00;;;;;20.10;44.33;101005.19;5019816;28;57949;-48
2023/07/16 00:35:35;;;;;;;;;5.33;5.00;;;;;20.08;44.12;101006.31;5019807;28;65670;-50
2023/07/16 00:38:00;;;;;;;;;5.67;4.67;;;;;20.05;44.49;101011.94;5020546;28;45467;-47
2023/07/16 00:40:26;;;;;;;;;7.33;6.00;;;;;20.04;44.12;101013.81;5019897;28;66872;-47
2023/07/16 00:42:51;;;;;;;;;4.00;4.00;;;;;20.04;44.48;101021.91;5019539;28;69777;-45
2023/07/16 00:45:16;;;;;;;;;6.33;4.67;;;;;19.99;45.96;101016.03;5019431;28;69507;-48
2023/07/16 00:47:43;;;;;;;;;7.33;7.00;;;;;19.93;45.10;101017.44;5020642;28;45403;-47
2023/07/16 00:50:10;;;;;;;;;8.00;7.00;;;;;19.91;45.11;101015.88;5020144;28;46126;-46
2023/07/16 00:52:36;;;;;;;;;4.33;4.33;;;;;19.88;45.29;101022.38;5020448;28;45337;-46
2023/07/16 00:55:01;;;;;;;;;12.00;6.67;;;;;19.86;45.76;101018.94;5020482;28;45371;-49
2023/07/16 00:57:26;;;;;;;;;7.00;5.67;;;;;19.83;45.69;101011.13;5002408;28;45439;-46
2023/07/16 00:59:52;;;;;;;;;7.00;5.00;;;;;19.78;46.80;101021.44;5020209;28;45929;-49
2023/07/16 01:02:17;;;;;;;;;8.00;6.67;;;;;19.75;45.63;101013.56;5019037;28;71992;-48
2023/07/16 01:04:42;;;;;;;;;7.67;5.67;;;;;19.70;46.14;101022.06;5018961;28;68267;-47
2023/07/16 01:07:11;;;;;;;;;7.67;7.00;;;;;19.64;46.81;101018.03;5019603;28;63894;-47
2023/07/16 01:09:44;;;;;;;;;7.67;6.00;;;;;19.62;46.71;101024.56;5002271;28;45987;-45
2023/07/16 01:12:10;;;;;;;;;8.00;6.00;;;;;19.63;46.29;101016.34;5020005;28;45451;-46
2023/07/16 01:14:35;;;;;;;;;6.67;6.33;;;;;19.61;46.60;101023.72;5020032;28;45601;-48
2023/07/16 01:17:06;;;;;;;;;7.00;7.00;;;;;19.62;46.21;101019.16;5018420;28;45269;-47
2023/07/16 01:19:32;;;;;;;;;8.33;8.00;;;;;19.61;46.75;101020.16;5018562;28;46860;-46
2023/07/16 01:22:06;;;;;;;;;7.00;6.67;;;;;19.59;46.50;101014.88;5019897;28;45546;-48
2023/07/16 01:25:10;;;;;;;;;6.67;6.00;;;;;19.59;46.96;101035.63;5018919;28;45491;-49
2023/07/16 01:27:36;;;;;;;;;7.33;7.33;;;;;19.50;47.19;101031.84;5019753;28;45462;-47
2023/07/16 01:30:03;;;;;;;;;8.33;8.33;;;;;19.47;46.55;101032.97;5019374;28;45742;-46
2023/07/16 01:32:30;;;;;;;;;10.00;8.33;;;;;19.43;47.26;101028.81;5019736;28;45434;-47
2023/07/16 01:34:57;;;;;;;;;9.00;7.00;;;;;19.39;47.76;101034.63;5000288;28;45371;-48
2023/07/16 01:37:22;;;;;;;;;6.33;6.33;;;;;19.38;47.54;101041.81;5019797;28;45367;-47
2023/07/16 01:39:47;;;;;;;;;10.33;7.67;;;;;19.38;47.37;101033.72;5017389;28;69646;-46
2023/07/16 01:42:13;;;;;;;;;9.33;8.00;;;;;19.34;47.54;101041.22;5019331;28;56803;-50
2023/07/16 01:44:38;;;;;;;;;11.67;8.67;;;;;19.34;48.00;101049.31;5018675;28;68721;-46
2023/07/16 01:47:12;;;;;;;;;13.00;9.33;;;;;19.31;47.71;101044.19;5018884;28;61574;-45
2023/07/16 01:49:38;;;;;;;;;10.00;8.67;;;;;19.31;47.65;101044.19;5018147;28;45880;-46
2023/07/16 01:52:05;;;;;;;;;11.00;9.67;;;;;19.31;47.61;101041.50;5019166;28;45434;-46
2023/07/16 01:54:31;;;;;;;;;9.67;9.00;;;;;19.28;48.45;101048.97;5019410;28;45419;-46
2023/07/16 01:56:56;;;;;;;;;9.00;9.00;;;;;19.27;48.45;101048.13;5018483;28;69199;-46
2023/07/16 01:59:21;;;;;;;;;10.33;8.33;;;;;19.30;48.27;101047.00;5018231;28;46277;-45
2023/07/16 02:01:47;;;;;;;;;9.33;9.33;;;;;19.32;48.54;101050.41;5018195;28;73261;-47
2023/07/16 02:04:12;;;;;;;;;10.00;8.67;;;;;19.30;48.51;101047.84;5019406;28;45337;-48
2023/07/16 02:06:37;;;;;;;;;8.67;8.67;;;;;19.28;48.79;101055.25;5018292;28;67332;-49
2023/07/16 02:09:03;;;;;;;;;7.33;7.33;;;;;19.27;48.67;101047.28;5018975;28;46054;-48
2023/07/16 02:11:29;;;;;;;;;10.67;8.00;;;;;19.23;48.75;101045.78;5018317;28;71451;-49
2023/07/16 02:13:54;;;;;;;;;13.00;9.00;;;;;19.23;49.01;101048.50;5019076;28;45470;-47
2023/07/16 02:16:19;;;;;;;;;8.00;8.00;;;;;19.20;49.63;101046.91;5018287;28;64601;-45
2023/07/16 02:18:44;;;;;;;;;11.00;7.67;;;;;19.14;49.17;101063.63;5018730;28;55240;-46
2023/07/16 02:21:10;;;;;;;;;10.00;8.00;;;;;19.14;49.46;101063.63;5018401;28;71321;-46
2023/07/16 02:23:35;;;;;;;;;6.33;6.33;;;;;19.11;49.78;101082.72;5018550;28;57209;-46
2023/07/16 02:26:01;;;;;;;;;9.00;6.33;;;;;19.07;49.08;101060.53;5018366;28;62074;-49
2023/07/16 02:28:26;;;;;;;;;10.33;6.67;;;;;19.06;50.05;101066.06;5018568;28;58281;-48
2023/07/16 02:30:51;;;;;;;;;8.00;7.00;;;;;19.04;49.20;101070.72;5021235;28;45357;-50
2023/07/16 02:33:16;;;;;;;;;12.00;8.00;;;;;19.04;49.74;101071.59;5021606;28;66819;-46
2023/07/16 02:35:49;;;;;;;;;6.67;6.33;;;;;19.05;49.25;101076.00;5022611;28;45555;-47
2023/07/16 02:38:15;;;;;;;;;10.00;7.00;;;;;19.08;49.38;101078.44;5022381;28;46139;-46
2023/07/16 02:40:44;;;;;;;;;6.33;6.33;;;;;19.11;49.65;101085.41;5022512;28;45286;-49
2023/07/16 02:43:10;;;;;;;;;10.33;8.00;;;;;19.12;49.60;101087.13;5021233;28;45423;-48
2023/07/16 02:45:35;;;;;;;;;7.33;7.33;;;;;19.06;49.65;101088.50;5021149;28;69351;-48
2023/07/16 02:48:00;;;;;;;;;10.00;7.33;;;;;19.05;50.95;101091.31;5021424;28;69475;-46
2023/07/16 02:50:26;;;;;;;;;9.00;8.00;;;;;19.03;50.11;101095.97;5021265;28;71893;-47
2023/07/16 02:52:51;;;;;;;;;8.33;6.33;;;;;18.99;49.80;101096.22;5021730;28;56010;-49
2023/07/16 02:55:16;;;;;;;;;7.33;5.33;;;;;18.96;49.96;101091.06;5022316;28;45411;-50
2023/07/16 02:57:42;;;;;;;;;10.00;7.00;;;;;18.92;50.05;101088.75;5021285;28;72973;-50
2023/07/16 03:00:07;;;;;;;;;12.00;6.67;;;;;18.85;50.55;101093.72;5022612;28;69675;-50
2023/07/16 03:02:33;;;;;;;;;7.33;6.00;;;;;18.82;50.72;101088.59;5022024;28;45383;-50
2023/07/16 03:04:58;;;;;;;;;6.00;6.00;;;;;18.77;51.14;101091.69;5021232;28;67311;-51
2023/07/16 03:07:23;;;;;;;;;5.33;5.33;;;;;18.71;50.54;101100.25;5021581;28;54146;-50
2023/07/16 03:09:49;;;;;;;;;8.00;8.00;;;;;18.63;50.80;101090.09;5021123;28;71000;-49
2023/07/16 03:12:14;;;;;;;;;10.67;8.33;;;;;18.56;51.38;101101.47;5021024;28;67586;-49
2023/07/16 03:14:39;;;;;;;;;9.67;8.00;;;;;18.54;52.02;101100.72;5022252;28;45439;-49
2023/07/16 03:17:06;;;;;;;;;9.00;7.00;;;;;18.45;52.78;101105.84;5021596;28;45451;-49
2023/07/16 03:19:32;;;;;;;;;7.33;7.00;;;;;18.42;52.89;101099.84;5021810;28;45451;-49
2023/07/16 03:21:57;;;;;;;;;7.67;7.00;;;;;18.38;51.98;101104.63;5022039;28;45363;-46
2023/07/16 03:24:22;;;;;;;;;5.67;5.33;;;;;18.34;53.82;101109.41;5021141;28;68575;-47
2023/07/16 03:26:47;;;;;;;;;9.00;7.67;;;;;18.31;53.13;101109.63;5021083;28;69090;-46
2023/07/16 03:29:13;;;;;;;;;8.00;8.00;;;;;18.29;52.55;101106.22;5021073;28;71443;-48
2023/07/16 03:31:38;;;;;;;;;8.00;6.00;;;;;18.29;53.63;101100.81;5020891;28;66706;-47
2023/07/16 03:34:03;;;;;;;;;6.67;6.00;;;;;18.24;53.42;101110.22;5021716;28;45278;-47
2023/07/16 03:36:29;;;;;;;;;9.00;7.33;;;;;18.22;52.90;101109.50;5020778;28;69087;-49
2023/07/16 03:38:54;;;;;;;;;7.33;6.00;;;;;18.25;52.74;101118.19;5020696;28;73631;-46
2023/07/16 03:41:19;;;;;;;;;10.33;5.67;;;;;18.26;53.22;101110.97;5019808;28;68228;-45
2023/07/16 03:43:45;;;;;;;;;9.00;9.00;;;;;18.27;53.57;101108.16;5020524;28;68679;-45
2023/07/16 03:46:10;;;;;;;;;10.33;7.67;;;;;18.24;53.22;101120.97;5020397;28;62232;-44
2023/07/16 03:48:36;;;;;;;;;5.33;5.33;;;;;18.22;53.91;101125.66;5021367;28;45406;-45
2023/07/16 03:51:01;;;;;;;;;9.00;7.00;;;;;18.18;53.39;101122.34;5021375;28;45562;-47
2023/07/16 03:53:26;;;;;;;;;6.00;6.00;;;;;18.19;53.57;101107.91;5020448;28;69026;-46
2023/07/16 03:55:52;;;;;;;;;9.00;7.67;;;;;18.10;54.64;101120.22;5020447;28;67196;-44
2023/07/16 03:58:17;;;;;;;;;9.00;9.00;;;;;18.03;54.89;101119.00;5020715;28;60538;-46
2023/07/16 04:00:43;;;;;;;;;7.67;7.33;;;;;17.96;55.09;101126.66;5021111;28;45496;-45
2023/07/16 04:03:09;;;;;;;;;5.00;5.00;;;;;17.87;55.62;101108.50;5021119;28;45344;-46
2023/07/16 04:05:34;;;;;;;;;9.00;9.00;;;;;17.86;55.06;101128.31;5020653;28;45390;-46
2023/07/16 04:07:59;;;;;;;;;11.33;9.67;;;;;17.88;54.94;101131.75;5020185;28;69806;-46
2023/07/16 04:10:25;;;;;;;;;6.33;6.33;;;;;17.86;55.24;101125.63;5020184;28;68274;-47
2023/07/16 04:12:50;;;;;;;;;10.00;8.33;;;;;17.78;56.67;101128.03;5020280;28;69515;-45
2023/07/16 04:15:15;;;;;;;;;8.67;8.67;;;;;17.76;55.75;101136.22;5019736;28;69470;-46
2023/07/16 04:17:41;;;;;;;;;10.00;8.00;;;;;17.79;55.73;101135.97;5020300;28;45398;-48
2023/07/16 04:20:07;;;;;;;;;11.33;7.33;;;;;17.85;55.79;101127.44;5020112;28;65541;-47
2023/07/16 04:22:36;;;;;;;;;10.67;9.33;;;;;17.88;55.52;101134.44;5019629;28;45319;-45
2023/07/16 04:25:02;;;;;;;;;12.00;8.67;;;;;17.91;55.90;101131.50;5020780;28;47168;-48
2023/07/16 04:27:27;;;;;;;;;8.67;6.67;;;;;17.95;56.05;101141.09;5002532;28;45484;-47
2023/07/16 04:29:53;;;;;;;;;13.33;10.33;;;;;17.96;55.66;101142.81;5020764;28;45447;-48
2023/07/16 04:32:18;;;;;;;;;7.33;6.67;;;;;17.96;55.61;101144.66;5020063;28;67922;-45
2023/07/16 04:34:44;;;;;;;;;12.00;9.00;;;;;17.97;55.36;101141.84;5020262;28;54480;-49
2023/07/16 04:37:09;;;;;;;;;8.33;7.33;;;;;17.98;55.44;101148.94;5020324;28;45340;-48
2023/07/16 04:39:34;;;;;;;;;9.00;6.67;;;;;17.98;55.60;101157.00;5020087;28;63853;-45
2023/07/16 04:42:00;;;;;;;;;8.67;6.67;;;;;18.00;56.62;101144.31;5019819;28;67684;-47
2023/07/16 04:44:25;;;;;;;;;8.00;8.00;;;;;18.07;55.84;101155.47;4998858;28;70055;-49
2023/07/16 04:46:50;;;;;;;;;6.33;6.33;;;;;18.14;55.40;101156.69;5018197;28;71258;-46
2023/07/16 04:49:15;;;;;;;;;7.67;6.33;;;;;18.16;55.72;101153.88;5019742;28;61683;-46
2023/07/16 04:51:41;;;;;;;;;6.33;6.33;;;;;18.18;55.86;101162.72;5020398;28;45602;-46
2023/07/16 04:54:06;;;;;;;;;8.00;7.67;;;;;18.19;56.65;101162.59;5019362;28;71340;-46
2023/07/16 04:56:31;;;;;;;;;9.67;9.67;;;;;18.21;55.71;101165.16;5019444;28;67706;-49
2023/07/16 04:58:57;;;;;;;;;8.67;8.00;;;;;18.27;55.43;101171.91;5019698;28;66698;-47
2023/07/16 05:01:22;;;;;;;;;8.67;7.67;;;;;18.27;55.94;101166.53;5019701;28;70841;-46
2023/07/16 05:03:47;;;;;;;;;9.00;9.00;;;;;18.30;56.10;101174.38;5020518;28;54577;-47
2023/07/16 05:06:13;;;;;;;;;7.33;6.33;;;;;18.31;56.20;101171.56;5018651;28;58673;-47
2023/07/16 05:08:38;;;;;;;;;10.33;6.00;;;;;18.35;55.56;101175.75;5020263;28;45670;-46
2023/07/16 05:11:03;;;;;;;;;9.00;8.33;;;;;18.33;55.67;101177.69;5019393;28;68244;-48
2023/07/16 05:13:29;;;;;;;;;12.67;9.00;;;;;18.43;55.79;101176.97;5019891;28;45443;-46
2023/07/16 05:15:54;;;;;;;;;12.00;9.00;;;;;18.54;55.40;101189.59;5019905;28;45325;-46
2023/07/16 05:18:21;;;;;;;;;6.00;5.33;;;;;18.64;55.30;101178.00;5020193;28;45272;-46
2023/07/16 05:20:49;;;;;;;;;7.67;7.67;;;;;18.73;55.46;101175.56;5019998;28;45336;-46
2023/07/16 05:23:14;;;;;;;;;11.67;10.33;;;;;18.77;54.90;101190.50;5019701;28;45399;-46
2023/07/16 05:25:46;;;;;;;;;11.67;10.00;;;;;18.82;55.24;101186.44;5018780;28;71229;-47
2023/07/16 05:28:12;;;;;;;;;14.00;11.33;;;;;18.90;54.86;101195.81;5019782;28;45413;-46
2023/07/16 05:30:37;;;;;;;;;9.33;9.00;;;;;18.95;54.74;101190.91;5018691;28;69174;-47
2023/07/16 05:33:02;;;;;;;;;12.00;9.33;;;;;18.94;54.87;101187.38;5018780;28;71624;-48
2023/07/16 05:35:28;;;;;;;;;10.67;9.00;;;;;18.98;55.17;101187.97;5018642;28;73909;-49
2023/07/16 05:37:53;;;;;;;;;9.00;9.00;;;;;19.04;54.77;101187.50;5018968;28;65138;-46
2023/07/16 05:40:18;;;;;;;;;13.00;9.00;;;;;19.16;54.69;101191.03;5019381;28;50717;-46
2023/07/16 05:42:44;;;;;;;;;13.00;10.00;;;;;19.25;53.96;101193.00;5019700;28;46056;-46
2023/07/16 05:45:09;;;;;;;;;12.67;10.00;;;;;19.37;53.94;101198.38;5018323;28;70182;-45
2023/07/16 05:47:34;;;;;;;;;10.67;8.67;;;;;19.48;54.08;101199.22;5019595;28;45251;-47
2023/07/16 05:49:59;;;;;;;;;11.00;9.00;;;;;19.59;53.80;101201.03;5019050;28;53804;-45
2023/07/16 05:52:25;;;;;;;;;8.00;6.00;;;;;19.66;53.78;101201.41;5019139;28;58668;-47
2023/07/16 05:54:51;;;;;;;;;11.67;9.00;;;;;19.74;53.07;101200.78;5019348;28;45350;-48
2023/07/16 05:57:16;;;;;;;;;8.33;8.33;;;;;19.75;52.88;101210.56;5017372;28;67940;-46
2023/07/16 05:59:41;;;;;;;;;10.00;8.67;;;;;19.80;52.83;101213.75;5018809;28;67280;-44
2023/07/16 06:02:07;;;;;;;;;8.67;8.00;;;;;19.89;52.81;101215.69;5018916;28;56432;-46
2023/07/16 06:04:33;;;;;;;;;8.00;8.00;;;;;19.96;52.24;101224.19;5019544;28;45483;-44
2023/07/16 06:06:58;;;;;;;;;8.00;8.00;;;;;20.03;52.29;101224.50;5022801;28;45324;-46
2023/07/16 06:09:24;;;;;;;;;5.33;5.33;;;;;20.12;52.49;101227.28;5023266;28;45372;-47
2023/07/16 06:11:49;;;;;;;;;13.67;6.00;;;;;20.25;52.36;101226.28;5022795;28;45268;-46
2023/07/16 06:14:15;;;;;;;;;8.33;8.00;;;;;20.35;52.11;101227.22;5021296;28;45680;-44
2023/07/16 06:16:40;;;;;;;;;11.67;8.67;;;;;20.45;51.60;101229.97;5023079;28;45580;-45
2023/07/16 06:19:06;;;;;;;;;10.33;8.00;;;;;20.56;51.39;101240.72;5022732;28;45272;-44
2023/07/16 06:21:31;;;;;;;;;10.33;8.33;;;;;20.70;51.29;101239.53;5021783;28;73006;-47
2023/07/16 06:23:56;;;;;;;;;12.00;10.00;;;;;20.82;51.23;101251.16;5021930;28;70049;-44
2023/07/16 06:26:22;;;;;;;;;11.00;8.67;;;;;20.92;51.42;101241.25;5021560;28;67733;-44
2023/07/16 06:28:50;;;;;;;;;4.67;4.67;;;;;20.94;50.53;101249.25;5021583;28;70257;-44
2023/07/16 06:31:17;;;;;;;;;8.00;6.00;;;;;20.88;50.64;101249.78;5022313;28;45198;-45
2023/07/16 06:33:42;;;;;;;;;11.00;8.00;;;;;20.80;50.57;101251.28;5022450;28;45416;-46
2023/07/16 06:36:07;;;;;;;;;11.00;8.00;;;;;20.76;50.90;101266.06;5022844;28;45266;-45
2023/07/16 06:38:32;;;;;;;;;11.33;7.00;;;;;20.66;50.43;101257.00;5021688;28;67337;-49
2023/07/16 06:40:58;;;;;;;;;9.00;5.33;;;;;20.60;50.83;101271.06;5021623;28;75990;-45
2023/07/16 06:43:23;;;;;;;;;8.00;6.00;;;;;21.10;50.41;101260.41;5022400;28;45499;-45
2023/07/16 06:45:50;;;;;;;;;9.00;7.00;;;;;21.02;50.06;101262.94;5022377;28;45383;-44
2023/07/16 06:48:16;;;;;;;;;7.33;6.00;;;;;20.95;49.84;101251.81;5022232;28;45584;-47
2023/07/16 06:50:41;;;;;;;;;7.67;7.33;;;;;20.89;50.36;101262.31;5022250;28;45369;-46
2023/07/16 06:53:06;;;;;;;;;11.00;7.33;;;;;21.39;49.61;101261.56;5021338;28;68348;-47
2023/07/16 06:55:32;;;;;;;;;9.33;8.33;;;;;21.63;49.75;101256.69;5021300;28;67288;-45
2023/07/16 06:57:57;;;;;;;;;8.33;8.00;;;;;21.94;48.68;101259.31;5021328;28;60030;-45
2023/07/16 07:00:22;;;;;;;;;10.00;9.00;;;;;22.87;48.43;101255.34;5021804;28;46099;-45
2023/07/16 07:02:48;;;;;;;;;8.00;5.33;;;;;25.01;44.90;101252.22;5021746;28;45377;-46
2023/07/16 07:05:13;;;;;;;;;9.33;8.00;;;;;26.69;42.19;101248.81;5021249;28;69268;-45
2023/07/16 07:07:38;;;;;;;;;10.00;7.00;;;;;28.61;39.26;101240.38;5021164;28;67250;-46
2023/07/16 07:10:04;;;;;;;;;8.67;6.00;;;;;31.13;37.38;101244.56;5021936;28;51307;-48
2023/07/16 07:12:29;;;;;;;;;13.00;8.33;;;;;33.43;32.01;101243.59;5021947;28;45361;-45
2023/07/16 07:14:55;;;;;;;;;7.67;6.00;;;;;35.24;31.31;101247.75;5021797;28;45326;-49
2023/07/16 07:17:20;;;;;;;;;7.67;6.00;;;;;36.42;29.14;101243.81;5020250;28;58862;-45
2023/07/16 07:19:45;;;;;;;;;9.00;9.00;;;;;37.15;28.26;101249.13;5021579;28;46115;-46
2023/07/16 07:22:11;;;;;;;;;5.67;5.67;;;;;37.14;26.70;101247.44;5020199;28;60185;-48
2023/07/16 07:24:36;;;;;;;;;7.00;6.33;;;;;36.40;26.42;101255.16;5022192;28;45431;-47
2023/07/16 07:27:02;;;;;;;;;7.33;7.33;;;;;35.55;27.77;101256.13;5021491;28;47251;-46
2023/07/16 07:29:27;;;;;;;;;7.00;6.00;;;;;35.22;27.69;101266.47;5021630;28;45713;-45
2023/07/16 07:31:52;;;;;;;;;6.33;5.33;;;;;36.65;27.19;101262.41;5020673;28;71758;-46
2023/07/16 07:34:18;;;;;;;;;10.33;9.67;;;;;37.38;26.38;101254.66;5021704;28;45704;-49
2023/07/16 07:36:43;;;;;;;;;4.00;2.67;;;;;36.90;25.35;101264.09;5021586;28;45580;-47
2023/07/16 07:39:08;;;;;;;;;7.67;5.33;;;;;37.16;24.85;101256.38;5020465;28;76001;-48
2023/07/16 07:41:34;;;;;;;;;9.75;6.75;;;;;37.99;24.01;101256.97;5020648;28;70414;-49
2023/07/16 07:43:59;;;;;;;;;9.00;5.75;;;;;38.81;23.77;101254.72;5020604;28;69447;-47
2023/07/16 07:46:25;;;;;;;;;8.25;5.25;;;;;37.50;23.08;101254.59;5021212;28;45277;-46
2023/07/16 07:48:50;;;;;;;;;6.50;5.50;;;;;36.90;24.20;101276.03;5020865;28;59995;-46
2023/07/16 07:51:15;;;;;;;;;7.00;5.00;;;;;35.78;24.14;101266.47;5021267;28;48108;-47
2023/07/16 07:53:41;;;;;;;;;11.50;5.00;;;;;33.93;26.14;101278.78;5020809;28;67041;-47
2023/07/16 07:56:07;;;;;;;;;5.00;5.00;;;;;32.81;26.73;101273.38;5020959;28;45555;-48
2023/07/16 07:58:32;;;;;;;;;4.25;3.75;;;;;31.60;27.69;101284.13;5021184;28;46384;-46
2023/07/16 08:01:04;;;;;;;;;7.00;7.00;;;;;31.74;28.79;101275.94;5020038;28;71864;-45
2023/07/16 08:03:29;;;;;;;;;6.00;5.00;;;;;32.37;28.07;101270.16;5021474;28;45350;-44
2023/07/16 08:05:55;;;;;;;;;7.67;6.00;;;;;33.84;27.83;101273.75;5021159;28;45562;-45
2023/07/16 08:08:20;;;;;;;;;12.33;6.67;;;;;35.41;25.52;101274.78;5020157;28;74257;-45
2023/07/16 08:10:46;;;;;;;;;4.50;3.00;;;;;34.95;25.67;101265.94;5020084;28;64579;-46
2023/07/16 08:13:12;;;;;;;;;7.00;6.00;;;;;34.49;25.05;101275.47;5021200;28;45355;-47
2023/07/16 08:15:37;;;;;;;;;7.75;6.25;;;;;34.18;25.85;101272.47;5020571;28;45411;-44
2023/07/16 08:18:02;;;;;;;;;6.00;4.00;;;;;35.34;24.99;101276.78;5019748;28;71548;-47
2023/07/16 08:20:28;;;;;;;;;5.67;5.67;;;;;37.34;22.89;101266.47;5020956;28;45353;-46
2023/07/16 08:22:53;;;;;;;;;7.25;5.00;;;;;38.64;23.01;101271.38;5021092;28;45720;-44
2023/07/16 08:25:19;;;;;;;;;5.67;3.00;;;;;39.70;20.65;101265.94;5020837;28;45308;-48
2023/07/16 08:27:44;;;;;;;;;5.33;5.00;;;;;38.60;20.30;101264.66;5019194;28;73451;-46
2023/07/16 08:30:09;;;;;;;;;5.00;5.00;;;;;37.01;21.86;101259.63;5020518;28;45349;-45
2023/07/16 08:32:35;;;;;;;;;5.25;5.25;;;;;37.56;22.34;101270.25;5021029;28;45412;-45
2023/07/16 08:35:00;;;;;;;;;6.75;6.75;;;;;38.81;21.88;101276.13;5019682;28;61124;-46
2023/07/16 08:37:25;;;;;;;;;4.75;4.75;;;;;40.15;20.53;101264.72;5018720;28;63730;-46
2023/07/16 08:39:53;;;;;;;;;5.50;4.00;;;;;40.82;19.39;101270.84;5020494;28;45329;-47
2023/07/16 08:42:19;;;;;;;;;8.25;4.50;;;;;40.31;19.95;101268.50;5020986;28;45392;-46
2023/07/16 08:44:44;;;;;;;;;6.75;5.25;;;;;38.06;21.10;101284.56;5020220;28;45444;-45
2023/07/16 08:47:10;;;;;;;;;4.50;4.50;;;;;35.82;22.16;101280.69;5019516;28;67735;-47
2023/07/16 08:49:36;;;;;;;;;3.50;3.50;;;;;36.48;22.58;101278.88;5020075;28;45494;-46
2023/07/16 08:52:02;;;;;;;;;4.75;4.00;;;;;38.45;20.90;101272.75;5020614;28;45500;-48
2023/07/16 08:54:27;;;;;;;;;6.50;4.50;;;;;39.08;19.57;101276.22;5020091;28;45391;-48
2023/07/16 08:56:53;;;;;;;;;4.75;4.75;;;;;39.66;19.71;101279.53;5020201;28;45419;-45
2023/07/16 08:59:18;;;;;;;;;3.25;3.00;;;;;38.59;19.07;101279.63;5018898;28;45277;-46
2023/07/16 09:01:47;;;;;;;;;6.25;4.25;;;;;36.40;20.55;101287.50;5020297;28;45379;-48
2023/07/16 09:04:12;;;;;;;;;7.75;6.75;;;;;35.78;21.04;101275.59;5020075;28;45352;-46
2023/07/16 09:06:37;;;;;;;;;8.00;4.50;;;;;34.52;21.72;101275.84;5019834;28;49998;-48
2023/07/16 09:09:03;;;;;;;;;1.00;1.00;;;;;33.47;23.20;101277.91;5018939;28;45205;-45
2023/07/16 09:11:28;;;;;;;;;6.33;5.33;;;;;34.54;23.55;101287.53;5020343;28;45270;-46
2023/07/16 09:13:54;;;;;;;;;5.25;3.50;;;;;36.35;21.49;101309.53;5020015;28;45460;-48
2023/07/16 09:16:20;;;;;;;;;3.00;3.00;;;;;35.16;22.24;101280.38;5018929;28;75377;-47
2023/07/16 09:18:46;;;;;;;;;6.33;4.67;;;;;33.65;23.37;101279.13;5019711;28;45368;-46
2023/07/16 09:21:11;;;;;;;;;3.25;3.25;;;;;33.37;24.03;101283.03;5020147;28;45434;-45
2023/07/16 09:23:37;;;;;;;;;5.00;3.50;;;;;33.65;23.22;101276.38;5018911;28;68651;-46
2023/07/16 09:26:03;;;;;;;;;5.25;3.25;;;;;33.96;23.60;101274.72;5019615;28;45421;-46
2023/07/16 09:28:30;;;;;;;;;4.25;3.50;;;;;34.43;23.42;101274.44;5019775;28;45392;-47
2023/07/16 09:30:55;;;;;;;;;5.00;5.00;;;;;36.30;21.86;101292.75;5019716;28;45293;-45
2023/07/16 09:33:26;;;;;;;;;4.25;4.00;;;;;37.83;21.21;101282.75;5018410;28;45424;-45
2023/07/16 09:35:51;;;;;;;;;2.75;2.75;;;;;39.09;20.05;101277.06;5019728;28;46237;-47
2023/07/16 09:38:17;;;;;;;;;7.75;1.75;;;;;38.58;19.27;101279.91;5019611;28;45300;-47
2023/07/16 09:40:44;;;;;;;;;2.00;2.00;;;;;38.79;19.20;101284.72;5018966;28;45415;-46
2023/07/16 09:43:10;;;;;;;;;4.50;4.00;;;;;39.61;17.72;101286.91;5019621;28;46583;-48
2023/07/16 09:45:36;;;;;;;;;5.00;3.50;;;;;40.65;17.56;101290.53;5019362;28;47299;-47
2023/07/16 09:48:05;;;;;;;;;5.25;4.25;;;;;40.53;18.06;101298.22;5019357;28;45399;-49
2023/07/16 09:50:33;;;;;;;;;2.50;2.50;;;;;40.92;18.49;101291.53;5001915;28;45396;-48
2023/07/16 09:52:58;;;;;;;;;5.00;4.25;;;;;40.84;16.86;101304.00;5020000;28;45327;-48
2023/07/16 09:55:24;;;;;;;;;4.50;2.00;;;;;41.25;17.60;101284.75;5018088;28;45380;-47
2023/07/16 09:57:53;;;;;;;;;2.75;2.25;;;;;40.21;17.94;101303.75;5018208;28;45435;-47
2023/07/16 10:00:20;;;;;;;;;4.00;3.00;;;;;38.26;19.02;101291.59;5018091;28;45307;-45
2023/07/16 10:02:46;;;;;;;;;4.00;2.25;;;;;38.22;19.60;101285.66;5018166;28;46051;-45
2023/07/16 10:05:20;;;;;;;;;5.50;3.50;;;;;39.27;19.00;101278.72;5017850;28;46306;-46
2023/07/16 10:07:51;;;;;;;;;4.75;4.25;;;;;40.38;18.22;101284.13;5017625;28;45443;-47
2023/07/16 10:10:17;;;;;;;;;3.25;3.25;;;;;40.07;18.02;101276.31;5019298;28;45474;-46
2023/07/16 10:12:43;;;;;;;;;2.75;2.75;;;;;39.72;18.22;101269.28;5019347;28;45411;-47
2023/07/16 10:15:11;;;;;;;;;7.25;5.25;;;;;39.67;18.28;101264.53;5019102;28;46301;-46
2023/07/16 10:17:37;;;;;;;;;7.00;6.00;;;;;39.16;18.42;101272.16;5019102;28;45346;-48
2023/07/16 10:20:07;;;;;;;;;3.25;3.25;;;;;39.27;17.96;101265.69;5019201;28;45316;-49
2023/07/16 10:22:32;;;;;;;;;4.50;4.25;;;;;39.33;18.39;101266.56;5019226;28;45373;-50
2023/07/16 10:24:58;;;;;;;;;6.00;3.00;;;;;39.41;17.04;101260.53;5019004;28;45391;-49
2023/07/16 10:27:28;;;;;;;;;5.00;3.75;;;;;39.06;18.62;101256.16;5018895;28;45405;-47
2023/07/16 10:29:54;;;;;;;;;5.00;5.00;;;;;39.14;17.43;101263.22;5019085;28;45534;-50
2023/07/16 10:32:20;;;;;;;;;5.25;3.00;;;;;39.34;17.67;101255.19;5019133;28;45467;-45
2023/07/16 10:34:45;;;;;;;;;4.75;3.50;;;;;39.74;17.82;101260.66;5018790;28;46111;-49
2023/07/16 10:37:11;;;;;;;;;3.00;3.00;;;;;39.90;16.96;101258.91;5018260;28;70760;-48
2023/07/16 10:39:46;;;;;;;;;6.75;4.00;;;;;39.44;17.64;101261.97;5018290;28;58834;-49
2023/07/16 10:42:11;;;;;;;;;4.00;2.25;;;;;38.87;17.29;101256.47;5019138;28;45349;-48
2023/07/16 10:44:36;;;;;;;;;5.25;4.25;;;;;38.45;17.54;101248.59;5016345;28;71044;-46
2023/07/16 10:47:02;;;;;;;;;2.50;2.50;;;;;37.81;18.04;101251.59;5017617;28;69592;-45
2023/07/16 10:49:28;;;;;;;;;3.00;3.00;;;;;37.22;18.16;101244.28;5019007;28;45332;-47
2023/07/16 10:51:53;;;;;;;;;6.50;4.00;;;;;36.69;19.31;101246.97;5020836;28;45353;-48
2023/07/16 10:54:20;;;;;;;;;7.25;4.00;;;;;35.87;19.61;101242.13;5020932;28;71746;-46
2023/07/16 10:56:47;;;;;;;;;4.50;3.00;;;;;34.88;19.92;101243.06;5022195;28;45363;-46
2023/07/16 10:59:12;;;;;;;;;4.50;3.00;;;;;34.27;21.03;101248.22;5022134;28;45395;-45
2023/07/16 11:01:38;;;;;;;;;3.50;3.00;;;;;33.95;21.13;101237.22;5020814;28;45614;-49
2023/07/16 11:04:07;;;;;;;;;3.25;3.00;;;;;33.87;21.33;101231.94;5020453;28;46293;-48
2023/07/16 11:06:33;;;;;;;;;1.50;1.50;;;;;33.47;21.42;101235.72;5020774;28;45385;-49
2023/07/16 11:09:11;;;;;;;;;4.00;3.50;;;;;33.05;21.97;101230.56;5021295;28;59526;-48
2023/07/16 11:11:37;;;;;;;;;2.50;2.00;;;;;32.51;22.39;101234.41;5022231;28;45456;-51
2023/07/16 11:14:07;;;;;;;;;3.25;2.25;;;;;32.06;23.20;101248.72;5021982;28;45376;-50
2023/07/16 11:16:36;;;;;;;;;4.75;3.00;;;;;31.53;23.63;101241.16;5021628;28;45555;-48
2023/07/16 11:19:05;;;;;;;;;1.00;0.00;;;;;31.20;23.66;101247.31;5021869;28;45514;-46